Yarnaby, Oklahoma
Current Conditions -  °F | °C
As of 9:15 AM on Friday 31 Oct 2014 (Local Time) from KDUA Reporting Station
Clear Clear  
Wind Chill: 52°   Ceiling: Unl
Heat Index: 52°   Visibility: 10mi
Dew Point: 43°   Wind: 21mph
Humidity: 71%   Direction: 330°NNW
Pressure: 30.32"   Gusts: 25mph
Location:  33.7954°N, 96.3174°W
Report Text: KDUA 311415Z AUTO 33018G22KT 250V020 10SM CLR 11/06 A3032 RMK AO2
Loading
Personal Weather Stations






























Interactive Weather Map
Tropical Storm Tracking
New forecast layout! Learn more

10-Day Weather Forecast

Advertisements
Track Severe Weather on mobile